This is the latest recevied weather packets stored in our database for station/object K5YNC. If no packets are shown the sender has not sent any weather packets the latest 1 day(s).
| Time | Temp. | Humidity | Pressure | Rain* | Wind** | Luminosity | Snow |
|---|---|---|---|---|---|---|---|
| 1778016410 | 22.78° C | 68% | 1007.6 hPa | 0 mm | 0.89 m/s, 15° | 265 W/m² | - |
| 1778016108 | 22.22° C | 68% | 1007.7 hPa | 0 mm | 1.79 m/s, 303° | 287 W/m² | - |
| 1778015804 | 22.22° C | 68% | 1007.8 hPa | 0 mm | 2.24 m/s, 327° | 300 W/m² | - |
| 1778015502 | 22.22° C | 69% | 1007.8 hPa | 0 mm | 0.89 m/s, 36° | 322 W/m² | - |
| 1778015198 | 22.22° C | 68% | 1008 hPa | 0 mm | 2.24 m/s, 347° | 279 W/m² | - |
| 1778014895 | 22.22° C | 69% | 1007.9 hPa | 0 mm | 1.79 m/s, 48° | 237 W/m² | - |
| 1778014593 | 22.22° C | 69% | 1008.1 hPa | 0 mm | 1.34 m/s, 354° | 209 W/m² | - |
| 1778014291 | 22.78° C | 68% | 1008 hPa | 0 mm | 1.79 m/s, 348° | 177 W/m² | - |
| 1778013987 | 23.33° C | 68% | 1008 hPa | 0 mm | 1.79 m/s, 270° | 160 W/m² | - |
| 1778013685 | 23.89° C | 67% | 1008 hPa | 0 mm | 0.89 m/s, 330° | 190 W/m² | - |
| 1778013381 | 23.89° C | 66% | 1008 hPa | 0 mm | 1.34 m/s, 325° | 210 W/m² | - |
| 1778013079 | 24.44° C | 65% | 1007.9 hPa | 0 mm | 2.24 m/s, 305° | 244 W/m² | - |
| 1778012774 | 25° C | 64% | 1007.7 hPa | 0 mm | 2.24 m/s, 356° | 290 W/m² | - |
| 1778012471 | 25.56° C | 64% | 1007.4 hPa | 0 mm | 2.24 m/s, 300° | 363 W/m² | - |
| 1778012167 | 25° C | 67% | 1007.7 hPa | 0 mm | 0.45 m/s, 310° | 391 W/m² | - |
| 1778011865 | 25° C | 64% | 1007.9 hPa | 0 mm | 1.79 m/s, 333° | 385 W/m² | - |
| 1778011563 | 24.44° C | 65% | 1007.7 hPa | 0 mm | 2.24 m/s, 349° | 354 W/m² | - |
| 1778011259 | 25° C | 65% | 1007.7 hPa | 0 mm | 0.89 m/s, 164° | 291 W/m² | - |
| 1778010955 | 25° C | 64% | 1007.6 hPa | 0 mm | 2.24 m/s, 187° | 371 W/m² | - |
| 1778010653 | 25.56° C | 64% | 1007.7 hPa | 0 mm | 0.45 m/s, 201° | 262 W/m² | - |
| 1778010350 | 26.11° C | 62% | 1007.7 hPa | 0 mm | 1.79 m/s, 345° | 296 W/m² | - |
| 1778010046 | 25.56° C | 63% | 1007.3 hPa | 0 mm | 0.89 m/s, 356° | 513 W/m² | - |
| 1778009743 | 26.11° C | 62% | 1007.2 hPa | 0 mm | 0.45 m/s, 158° | 455 W/m² | - |
| 1778009440 | 26.67° C | 59% | 1007.3 hPa | 0 mm | 0.45 m/s, 224° | 711 W/m² | - |
| 1778009139 | 26.67° C | 57% | 1007.2 hPa | 0 mm | 1.34 m/s, 150° | 676 W/m² | - |
* Rain latest hour (hover to see other rain measurements)
** Current wind speed in m/s (hover to see current wind gust speed)